Time;durP1;ratioP1;P1;durP2;ratioP2;P2;SDS_P1;SDS_P2;PMS_P1;PMS_P2;Temp;Humidity;BMP_temperature;BMP_pressure;BME280_temperature;BME280_humidity;BME280_pressure;Samples;Min_cycle;Max_cycle;Signal;HPM_P1;HPM_P2
2023/12/24 00:01:14;;;;;;;8.00;2.45;;;9.60;99.90;;;9.53;82.25;99764.06;5073461;28;20112;-85
2023/12/24 00:03:42;;;;;;;11.45;2.42;;;9.60;99.90;;;9.59;82.19;99775.66;5065771;28;20036;-83
2023/12/24 00:06:09;;;;;;;8.68;2.47;;;9.70;99.90;;;9.51;81.76;99774.91;5075092;28;20036;-84
2023/12/24 00:08:37;;;;;;;10.27;2.40;;;9.60;99.90;;;9.52;81.94;99775.75;5075012;28;20119;-84
2023/12/24 00:11:05;;;;;;;9.80;2.42;;;9.60;99.90;;;9.53;81.29;99778.19;5074295;28;20396;-84
2023/12/24 00:13:33;;;;;;;8.73;2.40;;;9.70;99.90;;;9.58;81.63;99764.22;5023357;28;20048;-84
2023/12/24 00:16:02;;;;;;;9.57;2.53;;;9.70;99.90;;;9.59;81.55;99765.84;5057537;28;20036;-83
2023/12/24 00:18:30;;;;;;;9.05;2.40;;;9.70;99.90;;;9.54;80.83;99771.00;5074130;28;20041;-83
2023/12/24 00:20:57;;;;;;;10.25;2.40;;;9.70;99.90;;;9.48;80.98;99758.59;5062199;28;20499;-83
2023/12/24 00:23:25;;;;;;;8.50;2.42;;;9.60;99.90;;;9.46;81.07;99756.13;5075712;28;20064;-84
2023/12/24 00:25:52;;;;;;;13.35;2.50;;;9.70;99.90;;;9.51;80.92;99747.47;5075602;28;20051;-83
2023/12/24 00:28:20;;;;;;;10.30;2.22;;;9.70;99.90;;;9.49;81.21;99753.03;5060260;28;20115;-84
2023/12/24 00:30:47;;;;;;;10.73;2.60;;;9.70;99.90;;;9.49;81.15;99760.22;5058336;28;20045;-84
2023/12/24 00:33:16;;;;;;;6.75;2.28;;;9.70;99.90;;;9.49;81.31;99750.38;5074429;28;20090;-84
2023/12/24 00:35:44;;;;;;;6.07;2.00;;;9.70;99.90;;;9.50;81.11;99748.53;5038161;28;20563;-84
2023/12/24 00:38:11;;;;;;;8.32;2.47;;;9.70;99.90;;;9.50;81.18;99752.00;5054784;28;20037;-83
2023/12/24 00:40:39;;;;;;;12.25;2.47;;;9.70;99.90;;;9.51;81.07;99747.47;5062654;28;20048;-83
2023/12/24 00:43:24;;;;;;;7.53;1.90;;;9.70;99.90;;;9.54;80.77;99731.09;5076586;28;20120;-83
2023/12/24 00:45:51;;;;;;;8.77;2.28;;;9.70;99.90;;;9.55;80.46;99743.34;5073620;28;20053;-83
2023/12/24 00:48:20;;;;;;;11.48;2.30;;;9.80;99.90;;;9.57;80.65;99757.25;5057767;28;20052;-82
2023/12/24 00:50:49;;;;;;;9.60;2.20;;;9.80;99.90;;;9.60;80.67;99745.34;5066181;28;20140;-83
2023/12/24 00:53:17;;;;;;;6.70;2.30;;;9.80;99.90;;;9.58;80.80;99737.59;5073246;28;20051;-83
2023/12/24 00:55:44;;;;;;;10.05;2.50;;;9.80;99.90;;;9.60;81.25;99746.16;5065494;28;20057;-86
2023/12/24 00:58:11;;;;;;;10.93;2.55;;;9.80;99.90;;;9.60;81.16;99748.81;5106590;28;20053;-84
2023/12/24 01:00:39;;;;;;;8.98;2.40;;;9.80;99.90;;;9.63;81.07;99767.03;5070325;28;20512;-85
2023/12/24 01:03:06;;;;;;;10.50;2.35;;;9.80;99.90;;;9.60;80.84;99762.13;5073958;28;20062;-83
2023/12/24 01:05:35;;;;;;;9.40;2.50;;;9.80;99.90;;;9.62;81.14;99760.06;5095958;28;20045;-85
2023/12/24 01:08:03;;;;;;;7.05;2.10;;;9.80;99.90;;;9.62;81.45;99752.09;5053803;28;20049;-83
2023/12/24 01:10:31;;;;;;;9.27;2.25;;;9.80;99.90;;;9.65;81.38;99753.47;5062840;28;20051;-83
2023/12/24 01:12:59;;;;;;;7.28;2.38;;;9.80;99.90;;;9.68;81.22;99745.88;5073948;28;20049;-85
2023/12/24 01:15:27;;;;;;;9.55;3.15;;;9.80;99.90;;;9.65;81.22;99748.97;5073136;28;20055;-83
2023/12/24 01:17:55;;;;;;;13.48;2.85;;;9.80;99.90;;;9.65;81.30;99746.31;5063862;28;20049;-84
2023/12/24 01:20:22;;;;;;;9.05;2.42;;;9.80;99.90;;;9.67;81.39;99741.59;5069780;28;20067;-85
2023/12/24 01:22:53;;;;;;;8.88;2.55;;;9.90;99.90;;;9.69;81.37;99744.81;5057986;28;20040;-85
2023/12/24 01:25:20;;;;;;;9.63;2.40;;;9.90;99.90;;;9.68;81.72;99735.22;5053098;28;20045;-84
2023/12/24 01:27:48;;;;;;;6.93;2.60;;;9.80;99.90;;;9.67;82.17;99727.47;5049377;28;20052;-83
2023/12/24 01:30:15;;;;;;;9.18;2.95;;;9.80;99.90;;;9.67;82.01;99730.13;5068438;28;20071;-84
2023/12/24 01:32:42;;;;;;;11.05;3.53;;;9.80;99.90;;;9.65;82.41;99737.50;5065478;28;20053;-83
2023/12/24 01:35:10;;;;;;;9.50;3.15;;;9.80;99.90;;;9.64;82.91;99731.38;5023528;28;20041;-83
2023/12/24 01:37:37;;;;;;;9.85;2.70;;;9.80;99.90;;;9.65;83.13;99714.34;5054447;28;20120;-83
2023/12/24 01:40:11;;;;;;;5.78;2.30;;;9.80;99.90;;;9.65;83.04;99701.03;5050869;28;20048;-83
2023/12/24 01:42:38;;;;;;;8.98;2.35;;;9.80;99.90;;;9.68;82.77;99697.94;5070983;28;20048;-83
2023/12/24 01:45:08;;;;;;;8.00;2.70;;;9.80;99.90;;;9.68;82.87;99683.81;5089477;28;20037;-83
2023/12/24 01:47:35;;;;;;;6.97;2.13;;;9.80;99.90;;;9.69;83.22;99693.44;5073778;28;20070;-83
2023/12/24 01:50:04;;;;;;;9.13;2.00;;;9.80;99.90;;;9.68;83.81;99694.47;5069785;28;20519;-83
2023/12/24 01:52:32;;;;;;;8.98;2.15;;;9.80;99.90;;;9.66;84.35;99693.88;5061140;28;20032;-83
2023/12/24 01:55:13;;;;;;;11.05;2.35;;;9.80;99.90;;;9.64;84.42;99695.94;5073613;28;20072;-85
2023/12/24 01:57:43;;;;;;;10.40;2.63;;;9.80;99.90;;;9.62;84.50;99703.38;5061294;28;20040;-86
2023/12/24 02:00:12;;;;;;;11.65;2.55;;;9.80;99.90;;;9.57;84.72;99690.72;5073741;28;20527;-83
2023/12/24 02:02:39;;;;;;;11.40;2.38;;;9.80;99.90;;;9.53;84.61;99701.00;5071849;28;20131;-83
2023/12/24 02:05:07;;;;;;;7.78;2.45;;;9.80;99.90;;;9.58;84.32;99694.19;5073869;28;20041;-83
2023/12/24 02:07:36;;;;;;;7.95;2.20;;;9.80;99.90;;;9.60;84.13;99697.44;5070486;28;20140;-84
2023/12/24 02:10:05;;;;;;;7.53;2.20;;;9.80;99.90;;;9.61;83.75;99683.88;5074445;28;20044;-83
2023/12/24 02:12:35;;;;;;;7.55;2.28;;;9.80;99.90;;;9.66;83.33;99691.19;5064350;28;20056;-83
2023/12/24 02:15:05;;;;;;;8.55;2.22;;;9.80;99.90;;;9.67;82.67;99672.38;5105031;28;20049;-83
2023/12/24 02:17:35;;;;;;;6.53;1.60;;;9.80;99.90;;;9.63;82.21;99670.38;5073793;28;20522;-83
2023/12/24 02:20:02;;;;;;;7.93;1.98;;;9.80;99.90;;;9.68;82.16;99678.50;5072849;28;20041;-83
2023/12/24 02:22:32;;;;;;;5.80;1.60;;;9.80;99.90;;;9.69;81.91;99678.25;5064183;28;20471;-84
2023/12/24 02:25:00;;;;;;;9.20;2.28;;;9.90;99.90;;;9.68;81.17;99666.00;5092379;28;20048;-83
2023/12/24 02:27:34;;;;;;;6.35;2.03;;;9.90;99.90;;;9.69;80.91;99656.97;5058955;28;20542;-83
2023/12/24 02:30:12;;;;;;;10.77;1.88;;;9.90;99.90;;;9.73;80.60;99652.81;5067338;28;20045;-83
2023/12/24 02:32:43;;;;;;;7.88;1.60;;;9.90;99.90;;;9.77;81.08;99642.53;5065747;28;20048;-84
2023/12/24 02:35:12;;;;;;;12.43;1.83;;;9.90;99.90;;;9.75;80.13;99645.41;5075699;28;20078;-83
2023/12/24 02:37:41;;;;;;;9.20;1.75;;;9.90;99.90;;;9.76;80.07;99644.38;5077002;28;20060;-83
2023/12/24 02:40:09;;;;;;;5.05;1.70;;;9.90;99.90;;;9.75;79.94;99644.59;5059240;28;20048;-83
2023/12/24 02:42:36;;;;;;;6.80;1.40;;;9.90;99.90;;;9.73;79.85;99633.38;5076967;28;20083;-83
2023/12/24 02:45:05;;;;;;;6.03;1.20;;;9.90;99.90;;;9.75;80.62;99636.59;5076201;28;20503;-83
2023/12/24 02:47:33;;;;;;;4.28;1.33;;;9.90;99.90;;;9.73;81.61;99638.69;5075721;28;20040;-83
2023/12/24 02:50:03;;;;;;;5.82;1.40;;;9.90;99.90;;;9.73;82.06;99644.00;5075658;28;20044;-84
2023/12/24 02:52:30;;;;;;;7.68;1.40;;;9.90;99.90;;;9.74;82.58;99643.78;5076084;28;20044;-84
2023/12/24 02:54:59;;;;;;;7.78;1.35;;;9.80;99.90;;;9.65;83.29;99634.47;5075756;28;20040;-83
2023/12/24 02:57:27;;;;;;;8.32;1.52;;;9.80;99.90;;;9.63;84.09;99633.91;5059705;28;20036;-83
2023/12/24 02:59:55;;;;;;;5.45;1.55;;;9.80;99.90;;;9.69;84.52;99627.66;5066687;28;20086;-83
2023/12/24 03:02:23;;;;;;;8.48;1.50;;;9.80;99.90;;;9.66;84.90;99628.16;5055101;28;20107;-83
2023/12/24 03:04:50;;;;;;;5.95;1.50;;;9.80;99.90;;;9.68;85.55;99633.22;5063422;28;20048;-84
2023/12/24 03:07:18;;;;;;;7.50;1.58;;;9.80;99.90;;;9.68;85.89;99631.38;5068395;28;20106;-83
2023/12/24 03:09:45;;;;;;;8.60;1.70;;;9.70;99.90;;;9.66;86.55;99620.16;5059069;28;20070;-85
2023/12/24 03:12:17;;;;;;;8.80;2.10;;;9.70;99.90;;;9.58;87.44;99622.31;5092128;28;20036;-83
2023/12/24 03:14:44;;;;;;;5.10;1.42;;;9.70;99.90;;;9.58;88.01;99620.47;5074484;28;20144;-83
2023/12/24 03:17:12;;;;;;;6.65;1.60;;;9.70;99.90;;;9.55;88.68;99618.25;5056380;28;20147;-84
2023/12/24 03:19:41;;;;;;;4.03;1.50;;;9.60;99.90;;;9.57;88.95;99610.06;5055581;28;20049;-83
2023/12/24 03:22:09;;;;;;;4.32;1.70;;;9.60;99.90;;;9.61;89.04;99621.84;5075737;28;20047;-83
2023/12/24 03:24:38;;;;;;;6.40;1.77;;;9.70;99.90;;;9.62;89.25;99620.84;5073657;28;20064;-83
2023/12/24 03:27:05;;;;;;;4.30;1.88;;;9.70;99.90;;;9.63;89.10;99617.94;5031816;28;20084;-83
2023/12/24 03:29:34;;;;;;;4.35;1.88;;;9.70;99.90;;;9.59;89.58;99602.63;5060584;28;20033;-84
2023/12/24 03:32:02;;;;;;;3.80;1.73;;;9.70;99.90;;;9.60;90.12;99604.25;5083896;28;20490;-84
2023/12/24 03:34:30;;;;;;;6.68;1.70;;;9.60;99.90;;;9.66;90.32;99590.88;5085924;28;20048;-86
2023/12/24 03:36:57;;;;;;;4.43;1.70;;;9.70;99.90;;;9.67;90.07;99583.69;5074323;28;20040;-85
2023/12/24 03:39:24;;;;;;;5.03;1.88;;;9.70;99.90;;;9.63;90.21;99583.31;5074963;28;20052;-84
2023/12/24 03:41:52;;;;;;;4.43;1.70;;;9.70;99.90;;;9.65;90.54;99591.88;5075919;28;20125;-85
2023/12/24 03:44:19;;;;;;;3.63;1.40;;;9.70;99.90;;;9.66;90.79;99588.22;5043083;28;20083;-83
2023/12/24 03:46:48;;;;;;;2.30;1.30;;;9.70;99.90;;;9.66;91.04;99576.72;5041649;28;20060;-84
2023/12/24 03:49:16;;;;;;;2.88;1.17;;;9.70;99.90;;;9.62;91.26;99572.91;5059293;28;20131;-85
2023/12/24 03:51:44;;;;;;;2.63;1.13;;;9.70;99.90;;;9.60;91.65;99586.44;5075585;28;20106;-84
2023/12/24 03:54:11;;;;;;;2.55;1.00;;;9.70;99.90;;;9.60;91.79;99580.28;5109305;28;20054;-83
2023/12/24 03:56:39;;;;;;;2.75;1.35;;;9.70;99.90;;;9.62;92.26;99579.03;5075798;28;20547;-83
2023/12/24 03:59:06;;;;;;;2.53;1.10;;;9.70;99.90;;;9.64;92.45;99571.63;5059819;28;20053;-85
2023/12/24 04:01:33;;;;;;;2.97;1.20;;;9.70;99.90;;;9.64;92.74;99576.97;5066493;28;20478;-83
2023/12/24 04:04:03;;;;;;;3.75;1.23;;;9.70;99.90;;;9.58;93.43;99579.72;5099116;28;20051;-85
2023/12/24 04:06:30;;;;;;;2.80;1.40;;;9.70;99.90;;;9.59;93.80;99574.16;5075129;28;20063;-83
2023/12/24 04:08:58;;;;;;;2.50;1.20;;;9.70;99.90;;;9.57;94.18;99575.44;5075395;28;20063;-84
2023/12/24 04:11:28;;;;;;;3.40;1.20;;;9.70;99.90;;;9.59;94.31;99570.69;5075417;28;20418;-85
2023/12/24 04:13:55;;;;;;;3.25;1.27;;;9.70;99.90;;;9.62;94.57;99573.72;5059581;28;20461;-83
2023/12/24 04:16:23;;;;;;;2.78;1.25;;;9.80;99.90;;;9.59;94.72;99571.50;5042511;28;20063;-83
2023/12/24 04:18:50;;;;;;;2.30;1.10;;;9.80;99.90;;;9.63;94.99;99569.22;5077265;28;20040;-83
2023/12/24 04:21:20;;;;;;;3.00;0.90;;;9.80;99.90;;;9.65;94.64;99548.47;5089470;28;20041;-83
2023/12/24 04:23:47;;;;;;;2.10;0.95;;;9.80;99.90;;;9.61;95.21;99563.28;5058725;28;20102;-83
2023/12/24 04:26:15;;;;;;;3.90;0.95;;;9.80;99.90;;;9.67;95.31;99552.56;5073535;28;20045;-83
2023/12/24 04:28:42;;;;;;;2.33;1.20;;;9.80;99.90;;;9.63;95.25;99551.38;5058701;28;20040;-84
2023/12/24 04:31:12;;;;;;;2.40;0.82;;;9.80;99.90;;;9.62;95.30;99538.31;5075274;28;20100;-84
2023/12/24 04:33:40;;;;;;;2.33;0.98;;;9.80;99.90;;;9.60;95.53;99543.84;5072062;28;20048;-85
2023/12/24 04:36:09;;;;;;;2.97;0.90;;;9.80;99.90;;;9.62;95.76;99536.44;5074849;28;20503;-83
2023/12/24 04:38:38;;;;;;;2.67;1.10;;;9.70;99.90;;;9.57;96.14;99541.66;5058947;28;20048;-83
2023/12/24 04:41:06;;;;;;;2.97;1.00;;;9.80;99.90;;;9.60;96.28;99540.38;5075214;28;20041;-83
2023/12/24 04:43:33;;;;;;;3.38;1.10;;;9.80;99.90;;;9.58;96.59;99542.47;5075515;28;20071;-84
2023/12/24 04:46:01;;;;;;;2.42;1.00;;;9.80;99.90;;;9.59;96.79;99542.22;5092981;28;20055;-83
2023/12/24 04:48:28;;;;;;;3.28;0.90;;;9.80;99.90;;;9.62;96.64;99540.97;5059277;28;20055;-84
2023/12/24 04:50:57;;;;;;;2.70;1.30;;;9.80;99.90;;;9.61;96.39;99542.78;5059221;28;20040;-85
2023/12/24 04:53:24;;;;;;;1.88;1.00;;;9.80;99.90;;;9.60;96.89;99548.34;5081439;28;20123;-84
2023/12/24 04:55:56;;;;;;;2.00;0.90;;;9.80;99.90;;;9.62;96.91;99549.75;5074908;28;20048;-85
2023/12/24 04:58:23;;;;;;;2.30;0.90;;;9.80;99.90;;;9.61;97.19;99534.00;5058650;28;20041;-83
2023/12/24 05:00:53;;;;;;;3.10;0.90;;;9.90;99.90;;;9.61;97.10;99526.81;5058523;28;20052;-83
2023/12/24 05:03:20;;;;;;;2.20;0.90;;;9.80;99.90;;;9.63;97.13;99530.09;5059756;28;20044;-83
2023/12/24 05:05:48;;;;;;;3.45;0.90;;;9.80;99.90;;;9.63;97.04;99532.75;5074826;28;20052;-83
2023/12/24 05:08:15;;;;;;;1.88;0.90;;;9.80;99.90;;;9.62;97.51;99533.78;5075207;28;20049;-83
2023/12/24 05:10:44;;;;;;;1.50;0.80;;;9.80;99.90;;;9.69;97.19;99536.34;5074682;28;20041;-83
2023/12/24 05:13:13;;;;;;;1.70;0.80;;;9.80;99.90;;;9.71;96.75;99529.75;5041643;28;20048;-83
2023/12/24 05:15:41;;;;;;;2.92;0.90;;;9.80;99.90;;;9.68;96.81;99532.88;5074543;28;20051;-84
2023/12/24 05:18:08;;;;;;;2.10;0.90;;;9.80;99.90;;;9.68;96.84;99524.06;5057579;28;20079;-86
2023/12/24 05:20:36;;;;;;;4.32;0.80;;;9.80;99.90;;;9.66;96.95;99526.97;5058073;28;20051;-84
2023/12/24 05:23:04;;;;;;;2.80;0.80;;;9.80;99.90;;;9.67;96.86;99514.47;5074701;28;20044;-83
2023/12/24 05:25:31;;;;;;;2.03;0.80;;;9.80;99.90;;;9.65;97.16;99529.84;5040536;28;20048;-83
2023/12/24 05:27:59;;;;;;;1.75;0.70;;;9.80;99.90;;;9.64;97.31;99531.69;5074741;28;20557;-83
2023/12/24 05:30:28;;;;;;;1.98;0.80;;;9.80;99.90;;;9.65;97.69;99520.00;5076751;28;20045;-83
2023/12/24 05:32:55;;;;;;;2.53;1.20;;;9.80;99.90;;;9.69;97.65;99518.50;5058508;28;20123;-83
2023/12/24 05:35:23;;;;;;;2.03;0.70;;;9.80;99.90;;;9.70;97.32;99521.97;5074159;28;20103;-85
2023/12/24 05:37:50;;;;;;;2.33;0.68;;;9.80;99.90;;;9.72;97.26;99520.72;5076419;28;20036;-83
2023/12/24 05:40:18;;;;;;;1.92;0.70;;;9.90;99.90;;;9.74;97.19;99518.63;5073367;28;20048;-84
2023/12/24 05:42:45;;;;;;;1.00;0.60;;;9.90;99.90;;;9.69;96.88;99497.22;5057791;28;20567;-83
2023/12/24 05:45:13;;;;;;;4.63;0.70;;;9.90;99.90;;;9.69;96.74;99507.06;5021910;28;20516;-84
2023/12/24 05:47:42;;;;;;;1.20;0.70;;;9.80;99.90;;;9.71;97.01;99505.81;5055318;28;20451;-83
2023/12/24 05:50:11;;;;;;;1.65;0.80;;;9.80;99.90;;;9.68;97.08;99502.78;5055395;28;20575;-83
2023/12/24 05:52:41;;;;;;;1.98;0.75;;;9.80;99.90;;;9.65;97.40;99498.72;5056465;28;20464;-84
2023/12/24 05:55:12;;;;;;;3.55;0.80;;;9.80;99.90;;;9.64;97.71;99502.41;5088131;28;20053;-84
2023/12/24 05:57:40;;;;;;;;;;;9.80;99.90;;;9.67;97.52;99506.50;5072290;28;20041;-83
2023/12/24 06:00:10;;;;;;;3.30;1.02;;;9.80;99.90;;;9.65;97.44;99500.56;5043720;28;19920;-83
2023/12/24 06:02:44;;;;;;;2.63;1.10;;;9.80;99.90;;;9.65;97.46;99501.38;5077382;28;20044;-83
2023/12/24 06:05:12;;;;;;;1.92;0.98;;;9.80;99.90;;;9.67;97.73;99517.94;5059048;28;20051;-83
2023/12/24 06:07:39;;;;;;;1.70;0.90;;;9.80;99.90;;;9.64;97.88;99517.59;5076733;28;20064;-83
2023/12/24 06:10:08;;;;;;;1.98;1.00;;;9.80;99.90;;;9.67;98.09;99507.28;5077247;28;20105;-83
2023/12/24 06:12:36;;;;;;;2.33;1.00;;;9.80;99.90;;;9.72;98.00;99504.75;5077070;28;20071;-83
2023/12/24 06:15:05;;;;;;;2.00;1.08;;;9.90;99.90;;;9.72;97.51;99498.63;5075395;28;20102;-83
2023/12/24 06:17:32;;;;;;;2.58;1.10;;;9.90;99.90;;;9.73;97.49;99517.03;5076182;28;20052;-83
2023/12/24 06:20:01;;;;;;;2.00;1.00;;;9.90;99.90;;;9.72;97.56;99514.59;5058627;28;20496;-82
2023/12/24 06:22:29;;;;;;;3.08;0.90;;;9.90;99.90;;;9.71;97.97;99502.31;5099005;28;20045;-82
2023/12/24 06:24:59;;;;;;;3.15;1.08;;;9.90;99.90;;;9.72;97.79;99498.63;5109658;28;20045;-83
2023/12/24 06:27:28;;;;;;;2.42;1.10;;;9.90;99.90;;;9.73;98.16;99516.22;5077042;28;20450;-82
2023/12/24 06:29:55;;;;;;;2.33;1.20;;;9.90;99.90;;;9.70;98.25;99509.47;5076109;28;20066;-83
2023/12/24 06:32:23;;;;;;;2.10;1.10;;;9.90;99.90;;;9.69;98.19;99501.72;5076153;28;20053;-83
2023/12/24 06:34:50;;;;;;;2.75;1.00;;;9.90;99.90;;;9.62;98.64;99504.50;5060327;28;20040;-83
2023/12/24 06:37:19;;;;;;;2.92;1.10;;;9.90;99.90;;;9.66;98.96;99508.34;5076329;28;20048;-83
2023/12/24 06:39:47;;;;;;;3.60;1.20;;;9.80;99.90;;;9.70;98.89;99500.69;5091914;28;20048;-82
2023/12/24 06:42:14;;;;;;;3.08;1.20;;;9.90;99.90;;;9.68;98.64;99494.78;5076243;28;20060;-83
2023/12/24 06:44:43;;;;;;;2.20;1.20;;;9.90;99.90;;;9.67;98.93;99495.84;5076594;28;20045;-83
2023/12/24 06:47:11;;;;;;;3.55;1.20;;;9.90;99.90;;;9.70;98.90;99501.50;5078437;28;20041;-83
2023/12/24 06:49:41;;;;;;;2.50;1.20;;;9.90;99.90;;;9.64;99.24;99497.09;5077835;28;20072;-83
2023/12/24 06:52:09;;;;;;;2.70;1.30;;;9.90;99.90;;;9.68;99.54;99500.13;5078784;28;20079;-83
2023/12/24 06:54:38;;;;;;;2.08;1.13;;;9.90;99.90;;;9.70;99.39;99498.03;5097146;28;20450;-82
2023/12/24 06:57:08;;;;;;;2.30;1.30;;;9.90;99.90;;;9.76;99.21;99497.94;5080916;28;20044;-83
2023/12/24 06:59:35;;;;;;;3.15;1.20;;;9.90;99.90;;;9.79;98.84;99496.66;5081234;28;20075;-82
2023/12/24 07:02:03;;;;;;;2.45;1.20;;;9.90;99.90;;;9.74;98.84;99500.00;5080616;28;20093;-82
2023/12/24 07:04:30;;;;;;;4.05;1.60;;;9.90;99.90;;;9.74;99.21;99505.31;5063028;28;20056;-83
2023/12/24 07:06:58;;;;;;;3.08;1.30;;;9.90;99.90;;;9.72;98.98;99493.31;5079303;28;20056;-82
2023/12/24 07:09:26;;;;;;;3.40;1.40;;;9.90;99.90;;;9.72;99.26;99496.78;5080365;28;20068;-83
2023/12/24 07:11:55;;;;;;;2.55;1.30;;;9.90;99.90;;;9.75;99.26;99488.31;5078893;28;20083;-82
2023/12/24 07:14:23;;;;;;;2.92;1.25;;;9.90;99.90;;;9.78;98.85;99482.53;5080451;28;20071;-83
2023/12/24 07:16:50;;;;;;;3.65;1.42;;;10.00;99.90;;;9.79;98.73;99484.16;5062338;28;20041;-83
2023/12/24 07:19:18;;;;;;;2.67;1.17;;;10.00;99.90;;;9.81;98.86;99491.94;5079111;28;20037;-83
2023/12/24 07:21:45;;;;;;;2.60;1.25;;;10.00;99.90;;;9.85;98.90;99489.59;5079405;28;20071;-83
2023/12/24 07:24:13;;;;;;;2.10;1.10;;;10.00;99.90;;;9.84;98.87;99491.44;5076417;28;20045;-83
2023/12/24 07:26:43;;;;;;;3.13;1.30;;;10.00;99.90;;;9.87;98.91;99479.53;5081626;28;20052;-85
2023/12/24 07:29:12;;;;;;;2.50;1.20;;;10.00;99.90;;;9.86;98.82;99485.88;5079626;28;20071;-85
2023/12/24 07:31:41;;;;;;;2.72;1.23;;;10.00;99.90;;;9.88;98.72;99494.47;5082020;28;20048;-85
2023/12/24 07:34:08;;;;;;;7.03;1.20;;;10.00;99.90;;;9.88;98.77;99497.13;5063668;28;20040;-85
2023/12/24 07:36:36;;;;;;;2.55;1.00;;;10.00;99.90;;;9.87;98.81;99500.84;5081563;28;20081;-85
2023/12/24 07:39:04;;;;;;;2.72;1.05;;;10.00;99.90;;;9.89;98.71;99485.44;5078211;28;20040;-84
2023/12/24 07:41:32;;;;;;;2.00;0.93;;;10.00;99.90;;;9.83;99.17;99492.50;5112263;28;20458;-83
2023/12/24 07:44:02;;;;;;;2.83;1.13;;;10.00;99.90;;;9.83;99.47;99497.00;5078902;28;20037;-83
2023/12/24 07:46:31;;;;;;;2.95;1.20;;;10.00;99.90;;;9.85;99.71;99502.91;5061593;28;20048;-83
2023/12/24 07:49:02;;;;;;;3.75;1.20;;;10.00;99.90;;;9.87;99.79;99479.53;5077634;28;20040;-83
2023/12/24 07:51:30;;;;;;;3.20;1.03;;;10.00;99.90;;;9.83;99.89;99484.50;5060252;28;20106;-83
2023/12/24 07:53:57;;;;;;;2.90;1.50;;;10.00;99.90;;;9.84;100.00;99487.97;5077330;28;20361;-83
2023/12/24 07:56:26;;;;;;;2.75;1.10;;;10.00;99.90;;;9.81;100.00;99489.25;5007698;28;20075;-83
2023/12/24 07:59:04;;;;;;;2.78;1.20;;;10.00;99.90;;;9.80;100.00;99495.59;5040398;28;20052;-82
2023/12/24 08:01:34;;;;;;;3.38;1.15;;;10.00;99.90;;;9.84;100.00;99491.44;5026702;28;20037;-83
2023/12/24 08:04:01;;;;;;;2.28;1.13;;;10.00;99.90;;;9.87;100.00;99492.84;5055755;28;20514;-83
2023/12/24 08:06:29;;;;;;;2.33;1.20;;;10.10;99.90;;;9.85;100.00;99484.25;5074062;28;20106;-83
2023/12/24 08:08:57;;;;;;;3.45;1.50;;;10.10;99.90;;;9.87;100.00;99490.19;5056932;28;20138;-83
2023/12/24 08:11:25;;;;;;;3.63;1.30;;;10.10;99.90;;;9.88;100.00;99478.50;5061292;28;20091;-82
2023/12/24 08:13:54;;;;;;;2.65;1.40;;;10.10;99.90;;;9.85;100.00;99474.41;5077972;28;20044;-82
2023/12/24 08:16:21;;;;;;;2.90;1.20;;;10.10;99.90;;;9.84;100.00;99474.66;5077196;28;20054;-82
2023/12/24 08:18:50;;;;;;;3.78;1.42;;;10.10;99.90;;;9.85;100.00;99481.59;5075867;28;20048;-84
2023/12/24 08:21:18;;;;;;;2.92;1.20;;;10.10;99.90;;;9.89;100.00;99477.44;5059910;28;20041;-84
2023/12/24 08:23:45;;;;;;;2.80;1.20;;;10.10;99.90;;;9.90;100.00;99485.19;5077644;28;20177;-84
2023/12/24 08:26:13;;;;;;;5.05;1.25;;;10.20;99.90;;;9.87;100.00;99495.50;5076528;28;20079;-84
2023/12/24 08:28:42;;;;;;;4.45;1.52;;;10.10;99.90;;;9.91;100.00;99484.16;5054613;28;20068;-84
2023/12/24 08:31:10;;;;;;;3.53;1.48;;;10.10;99.90;;;9.87;100.00;99482.19;5069135;28;20057;-83
2023/12/24 08:33:38;;;;;;;6.47;1.50;;;10.10;99.90;;;9.87;100.00;99474.22;5066607;28;20459;-84
2023/12/24 08:36:08;;;;;;;2.60;1.25;;;10.10;99.90;;;9.88;100.00;99471.31;5089021;28;20057;-83
2023/12/24 08:38:36;;;;;;;2.70;1.30;;;10.10;99.90;;;9.86;100.00;99472.56;5089553;28;20045;-82
2023/12/24 08:41:07;;;;;;;3.28;1.10;;;10.10;99.90;;;9.87;100.00;99471.53;5090754;28;20566;-84
2023/12/24 08:43:35;;;;;;;3.17;1.40;;;10.10;99.90;;;9.92;100.00;99474.31;5059358;28;20497;-83
2023/12/24 08:46:03;;;;;;;6.70;1.48;;;10.20;99.90;;;9.93;100.00;99475.94;5073448;28;20071;-83
2023/12/24 08:48:31;;;;;;;3.45;1.20;;;10.20;99.90;;;9.95;100.00;99465.84;5074752;28;20530;-82
2023/12/24 08:51:00;;;;;;;2.70;1.30;;;10.20;99.90;;;9.95;100.00;99477.31;5079013;28;20380;-83
2023/12/24 08:53:30;;;;;;;2.25;0.90;;;10.20;99.90;;;9.98;100.00;99482.19;5077511;28;20076;-83
2023/12/24 08:55:58;;;;;;;3.38;1.10;;;10.20;99.90;;;10.00;100.00;99481.94;5076183;28;20044;-83
2023/12/24 08:58:27;;;;;;;3.90;1.20;;;10.20;99.90;;;10.01;100.00;99475.59;5061186;28;20044;-84
2023/12/24 09:00:54;;;;;;;1.58;0.73;;;10.20;99.90;;;10.02;100.00;99471.91;5077374;28;20102;-83
2023/12/24 09:03:22;;;;;;;3.28;0.95;;;10.20;99.90;;;10.02;100.00;99482.53;5079368;28;20526;-83
2023/12/24 09:05:50;;;;;;;2.05;0.85;;;10.30;99.90;;;10.06;100.00;99483.72;5077369;28;20457;-83
2023/12/24 09:08:20;;;;;;;2.92;1.20;;;10.20;99.90;;;10.05;100.00;99487.38;5078721;28;20067;-84
2023/12/24 09:10:50;;;;;;;3.33;0.98;;;10.20;99.90;;;10.06;100.00;99483.72;5077206;28;20067;-84
2023/12/24 09:13:17;;;;;;;3.20;0.93;;;10.20;99.90;;;10.05;100.00;99476.72;5060356;28;20090;-84
2023/12/24 09:15:45;;;;;;;2.40;0.90;;;10.30;99.90;;;10.04;100.00;99475.13;5076268;28;20048;-84
2023/12/24 09:18:12;;;;;;;1.88;0.80;;;10.20;99.90;;;10.03;100.00;99473.50;5074400;28;20047;-84
2023/12/24 09:20:40;;;;;;;3.55;0.93;;;10.30;99.90;;;10.01;100.00;99471.09;5076038;28;20090;-83
2023/12/24 09:23:08;;;;;;;3.13;1.10;;;10.20;99.90;;;10.06;100.00;99479.19;5071282;28;20075;-83
2023/12/24 09:25:36;;;;;;;2.40;1.20;;;10.30;99.90;;;10.06;100.00;99470.38;5077032;28;20104;-84
2023/12/24 09:28:06;;;;;;;1.90;0.90;;;10.20;99.90;;;10.07;100.00;99477.34;5076910;28;20055;-84
2023/12/24 09:30:34;;;;;;;1.80;0.90;;;10.30;99.90;;;10.08;100.00;99476.28;5077570;28;20052;-83
2023/12/24 09:33:02;;;;;;;2.40;1.10;;;10.30;99.90;;;10.06;100.00;99478.38;5070579;28;20045;-84
2023/12/24 09:35:30;;;;;;;3.08;1.00;;;10.30;99.90;;;10.05;100.00;99479.41;5059323;28;20090;-85
2023/12/24 09:37:58;;;;;;;3.45;1.15;;;10.20;99.90;;;10.08;100.00;99481.63;5076042;28;20105;-85
2023/12/24 09:40:26;;;;;;;2.95;1.00;;;10.30;99.90;;;10.06;100.00;99497.03;5075895;28;20040;-84
2023/12/24 09:42:55;;;;;;;2.00;0.90;;;10.30;99.90;;;10.09;100.00;99483.22;5075583;28;20049;-84
2023/12/24 09:45:24;;;;;;;2.47;0.85;;;10.30;99.90;;;10.09;100.00;99482.41;5070702;28;20052;-83
2023/12/24 09:47:52;;;;;;;2.47;1.00;;;10.30;99.90;;;10.10;100.00;99494.69;5069857;28;20495;-83
2023/12/24 09:50:19;;;;;;;1.65;0.90;;;10.30;99.90;;;10.07;100.00;99490.66;5036300;28;20049;-83
2023/12/24 09:52:49;;;;;;;3.05;1.02;;;10.30;99.90;;;10.11;100.00;99483.00;5073008;28;20048;-87
2023/12/24 09:55:16;;;;;;;1.80;0.90;;;10.30;99.90;;;10.13;100.00;99483.59;5056771;28;20090;-84
2023/12/24 09:57:45;;;;;;;2.35;1.08;;;10.30;99.90;;;10.10;100.00;99503.50;5088576;28;20055;-84
2023/12/24 10:00:16;;;;;;;2.22;1.13;;;10.30;99.90;;;10.07;100.00;99496.78;5075198;28;20033;-84
2023/12/24 10:02:46;;;;;;;3.92;1.30;;;10.30;99.90;;;10.08;100.00;99492.28;5073440;28;20045;-84
2023/12/24 10:05:14;;;;;;;2.50;1.40;;;10.40;99.90;;;10.13;100.00;99491.56;5067358;28;20090;-84
2023/12/24 10:07:45;;;;;;;3.72;1.25;;;10.40;99.90;;;10.15;100.00;99492.97;5069817;28;20048;-83
2023/12/24 10:10:14;;;;;;;2.60;1.33;;;10.40;99.90;;;10.15;100.00;99481.47;5076170;28;20110;-84
2023/12/24 10:12:43;;;;;;;1.77;1.00;;;10.40;99.90;;;10.18;100.00;99471.19;5074517;28;20100;-84
2023/12/24 10:15:11;;;;;;;2.65;1.40;;;10.40;99.90;;;10.18;100.00;99475.69;5074137;28;20049;-83
2023/12/24 10:17:39;;;;;;;2.60;1.30;;;10.40;99.90;;;10.18;100.00;99475.69;5058687;28;20048;-83
2023/12/24 10:20:09;;;;;;;2.25;1.20;;;10.40;99.90;;;10.17;100.00;99464.22;5076343;28;20455;-84
2023/12/24 10:22:37;;;;;;;2.88;1.10;;;10.40;99.90;;;10.16;100.00;99456.47;5074033;28;20056;-83
2023/12/24 10:25:08;;;;;;;2.95;1.20;;;10.40;99.90;;;10.18;100.00;99462.38;5075886;28;20048;-85
2023/12/24 10:27:35;;;;;;;3.17;1.23;;;10.40;99.90;;;10.24;100.00;99456.13;5079665;28;20400;-84
2023/12/24 10:30:12;;;;;;;3.22;1.20;;;10.50;99.90;;;10.22;100.00;99459.00;5079208;28;20041;-84
2023/12/24 10:32:41;;;;;;;2.80;1.20;;;10.50;99.90;;;10.26;100.00;99446.88;5078883;28;20060;-84